sensor_id;sensor_type;location;lat;lon;timestamp;P1;durP1;ratioP1;P2;durP2;ratioP2
22060;SDS011;11194;48.092;-1.382;2023-08-17T00:01:46;5.50;;;4.35;;
22060;SDS011;11194;48.092;-1.382;2023-08-17T00:04:13;8.05;;;4.45;;
22060;SDS011;11194;48.092;-1.382;2023-08-17T00:06:39;6.20;;;4.45;;
22060;SDS011;11194;48.092;-1.382;2023-08-17T00:09:05;6.00;;;4.50;;
22060;SDS011;11194;48.092;-1.382;2023-08-17T00:11:31;5.05;;;4.13;;
22060;SDS011;11194;48.092;-1.382;2023-08-17T00:13:57;9.38;;;4.57;;
22060;SDS011;11194;48.092;-1.382;2023-08-17T00:16:23;7.90;;;4.28;;
22060;SDS011;11194;48.092;-1.382;2023-08-17T00:18:49;9.43;;;4.13;;
22060;SDS011;11194;48.092;-1.382;2023-08-17T00:21:15;7.57;;;4.60;;
22060;SDS011;11194;48.092;-1.382;2023-08-17T00:23:41;6.70;;;4.22;;
22060;SDS011;11194;48.092;-1.382;2023-08-17T00:26:08;8.27;;;3.85;;
22060;SDS011;11194;48.092;-1.382;2023-08-17T00:28:34;4.43;;;4.03;;
22060;SDS011;11194;48.092;-1.382;2023-08-17T00:31:00;4.75;;;4.07;;
22060;SDS011;11194;48.092;-1.382;2023-08-17T00:33:27;5.53;;;4.13;;
22060;SDS011;11194;48.092;-1.382;2023-08-17T00:35:53;7.00;;;4.43;;
22060;SDS011;11194;48.092;-1.382;2023-08-17T00:38:19;5.60;;;4.03;;
22060;SDS011;11194;48.092;-1.382;2023-08-17T00:40:45;6.40;;;4.43;;
22060;SDS011;11194;48.092;-1.382;2023-08-17T00:43:11;7.90;;;4.30;;
22060;SDS011;11194;48.092;-1.382;2023-08-17T00:45:37;6.32;;;4.80;;
22060;SDS011;11194;48.092;-1.382;2023-08-17T00:48:04;6.15;;;4.25;;
22060;SDS011;11194;48.092;-1.382;2023-08-17T00:50:32;5.03;;;4.15;;
22060;SDS011;11194;48.092;-1.382;2023-08-17T00:52:59;5.88;;;4.57;;
22060;SDS011;11194;48.092;-1.382;2023-08-17T00:55:25;4.97;;;3.97;;
22060;SDS011;11194;48.092;-1.382;2023-08-17T00:57:52;8.32;;;4.50;;
22060;SDS011;11194;48.092;-1.382;2023-08-17T01:00:19;7.13;;;4.65;;
22060;SDS011;11194;48.092;-1.382;2023-08-17T01:02:46;7.60;;;5.00;;
22060;SDS011;11194;48.092;-1.382;2023-08-17T01:05:12;7.53;;;5.20;;
22060;SDS011;11194;48.092;-1.382;2023-08-17T01:07:38;7.60;;;5.50;;
22060;SDS011;11194;48.092;-1.382;2023-08-17T01:10:05;5.72;;;5.13;;
22060;SDS011;11194;48.092;-1.382;2023-08-17T01:12:32;6.50;;;5.43;;
22060;SDS011;11194;48.092;-1.382;2023-08-17T01:15:08;7.85;;;5.90;;
22060;SDS011;11194;48.092;-1.382;2023-08-17T01:20:01;9.25;;;6.90;;
22060;SDS011;11194;48.092;-1.382;2023-08-17T01:22:29;9.27;;;7.07;;
22060;SDS011;11194;48.092;-1.382;2023-08-17T01:24:57;7.70;;;6.97;;
22060;SDS011;11194;48.092;-1.382;2023-08-17T01:27:29;9.80;;;7.25;;
22060;SDS011;11194;48.092;-1.382;2023-08-17T01:29:55;8.80;;;8.00;;
22060;SDS011;11194;48.092;-1.382;2023-08-17T01:34:50;8.85;;;8.15;;
22060;SDS011;11194;48.092;-1.382;2023-08-17T01:37:20;9.82;;;7.88;;
22060;SDS011;11194;48.092;-1.382;2023-08-17T01:39:48;7.68;;;6.95;;
22060;SDS011;11194;48.092;-1.382;2023-08-17T01:42:15;8.25;;;7.45;;
22060;SDS011;11194;48.092;-1.382;2023-08-17T01:44:41;8.63;;;7.72;;
22060;SDS011;11194;48.092;-1.382;2023-08-17T01:47:07;10.30;;;7.80;;
22060;SDS011;11194;48.092;-1.382;2023-08-17T01:49:35;9.27;;;8.38;;
22060;SDS011;11194;48.092;-1.382;2023-08-17T01:52:01;9.35;;;8.45;;
22060;SDS011;11194;48.092;-1.382;2023-08-17T01:54:27;10.02;;;9.23;;
22060;SDS011;11194;48.092;-1.382;2023-08-17T01:56:53;9.80;;;8.98;;
22060;SDS011;11194;48.092;-1.382;2023-08-17T01:59:19;11.93;;;10.95;;
22060;SDS011;11194;48.092;-1.382;2023-08-17T02:01:45;11.90;;;10.90;;
22060;SDS011;11194;48.092;-1.382;2023-08-17T02:04:11;12.93;;;11.68;;
22060;SDS011;11194;48.092;-1.382;2023-08-17T02:06:38;12.80;;;11.80;;
22060;SDS011;11194;48.092;-1.382;2023-08-17T02:09:04;12.77;;;11.65;;
22060;SDS011;11194;48.092;-1.382;2023-08-17T02:11:30;13.57;;;12.55;;
22060;SDS011;11194;48.092;-1.382;2023-08-17T02:13:56;13.20;;;12.20;;
22060;SDS011;11194;48.092;-1.382;2023-08-17T02:16:22;12.52;;;11.38;;
22060;SDS011;11194;48.092;-1.382;2023-08-17T02:18:48;12.20;;;11.00;;
22060;SDS011;11194;48.092;-1.382;2023-08-17T02:21:14;10.45;;;9.60;;
22060;SDS011;11194;48.092;-1.382;2023-08-17T02:23:40;11.45;;;10.23;;
22060;SDS011;11194;48.092;-1.382;2023-08-17T02:26:06;10.63;;;9.82;;
22060;SDS011;11194;48.092;-1.382;2023-08-17T02:28:32;10.23;;;9.27;;
22060;SDS011;11194;48.092;-1.382;2023-08-17T02:30:58;10.93;;;10.13;;
22060;SDS011;11194;48.092;-1.382;2023-08-17T02:33:24;11.18;;;10.25;;
22060;SDS011;11194;48.092;-1.382;2023-08-17T02:35:51;12.20;;;11.23;;
22060;SDS011;11194;48.092;-1.382;2023-08-17T02:38:17;12.52;;;11.35;;
22060;SDS011;11194;48.092;-1.382;2023-08-17T02:40:43;13.05;;;11.77;;
22060;SDS011;11194;48.092;-1.382;2023-08-17T02:43:09;12.57;;;11.65;;
22060;SDS011;11194;48.092;-1.382;2023-08-17T02:45:35;11.95;;;10.88;;
22060;SDS011;11194;48.092;-1.382;2023-08-17T02:48:01;11.45;;;10.63;;
22060;SDS011;11194;48.092;-1.382;2023-08-17T02:50:27;10.63;;;9.73;;
22060;SDS011;11194;48.092;-1.382;2023-08-17T02:52:53;12.18;;;11.13;;
22060;SDS011;11194;48.092;-1.382;2023-08-17T02:55:20;11.75;;;10.85;;
22060;SDS011;11194;48.092;-1.382;2023-08-17T02:57:46;11.80;;;10.70;;
22060;SDS011;11194;48.092;-1.382;2023-08-17T03:00:12;11.65;;;10.88;;
22060;SDS011;11194;48.092;-1.382;2023-08-17T03:02:38;12.27;;;11.38;;
22060;SDS011;11194;48.092;-1.382;2023-08-17T03:05:04;14.15;;;13.15;;
22060;SDS011;11194;48.092;-1.382;2023-08-17T03:07:30;14.07;;;12.98;;
22060;SDS011;11194;48.092;-1.382;2023-08-17T03:09:56;15.40;;;14.15;;
22060;SDS011;11194;48.092;-1.382;2023-08-17T03:12:22;15.57;;;14.60;;
22060;SDS011;11194;48.092;-1.382;2023-08-17T03:14:48;16.63;;;15.43;;
22060;SDS011;11194;48.092;-1.382;2023-08-17T03:17:14;15.35;;;14.25;;
22060;SDS011;11194;48.092;-1.382;2023-08-17T03:19:40;15.95;;;14.77;;
22060;SDS011;11194;48.092;-1.382;2023-08-17T03:22:06;17.58;;;16.35;;
22060;SDS011;11194;48.092;-1.382;2023-08-17T03:24:32;16.48;;;15.43;;
22060;SDS011;11194;48.092;-1.382;2023-08-17T03:26:59;18.88;;;17.50;;
22060;SDS011;11194;48.092;-1.382;2023-08-17T03:29:25;17.58;;;16.08;;
22060;SDS011;11194;48.092;-1.382;2023-08-17T03:31:52;17.15;;;15.75;;
22060;SDS011;11194;48.092;-1.382;2023-08-17T03:34:18;15.93;;;14.80;;
22060;SDS011;11194;48.092;-1.382;2023-08-17T03:36:44;15.52;;;14.40;;
22060;SDS011;11194;48.092;-1.382;2023-08-17T03:39:10;15.95;;;14.55;;
22060;SDS011;11194;48.092;-1.382;2023-08-17T03:41:36;15.40;;;14.30;;
22060;SDS011;11194;48.092;-1.382;2023-08-17T03:44:03;14.77;;;13.43;;
22060;SDS011;11194;48.092;-1.382;2023-08-17T03:46:31;15.65;;;14.40;;
22060;SDS011;11194;48.092;-1.382;2023-08-17T03:48:57;15.50;;;14.35;;
22060;SDS011;11194;48.092;-1.382;2023-08-17T03:51:23;15.85;;;14.77;;
22060;SDS011;11194;48.092;-1.382;2023-08-17T03:53:49;15.95;;;14.57;;
22060;SDS011;11194;48.092;-1.382;2023-08-17T03:56:15;15.00;;;13.75;;
22060;SDS011;11194;48.092;-1.382;2023-08-17T03:58:41;14.70;;;13.60;;
22060;SDS011;11194;48.092;-1.382;2023-08-17T04:01:08;15.07;;;13.98;;
22060;SDS011;11194;48.092;-1.382;2023-08-17T04:03:36;15.23;;;14.00;;
22060;SDS011;11194;48.092;-1.382;2023-08-17T04:06:05;13.52;;;12.32;;
22060;SDS011;11194;48.092;-1.382;2023-08-17T04:08:32;12.80;;;11.43;;
22060;SDS011;11194;48.092;-1.382;2023-08-17T04:10:58;12.07;;;10.98;;
22060;SDS011;11194;48.092;-1.382;2023-08-17T04:13:24;10.68;;;9.70;;
22060;SDS011;11194;48.092;-1.382;2023-08-17T04:15:52;10.63;;;9.30;;
22060;SDS011;11194;48.092;-1.382;2023-08-17T04:18:18;11.05;;;9.05;;
22060;SDS011;11194;48.092;-1.382;2023-08-17T04:20:44;9.40;;;8.43;;
22060;SDS011;11194;48.092;-1.382;2023-08-17T04:23:10;10.77;;;8.02;;
22060;SDS011;11194;48.092;-1.382;2023-08-17T04:25:36;9.07;;;8.13;;
22060;SDS011;11194;48.092;-1.382;2023-08-17T04:28:03;9.45;;;8.55;;
22060;SDS011;11194;48.092;-1.382;2023-08-17T04:30:29;10.95;;;9.20;;
22060;SDS011;11194;48.092;-1.382;2023-08-17T04:32:55;10.30;;;9.43;;
22060;SDS011;11194;48.092;-1.382;2023-08-17T04:35:21;10.00;;;9.05;;
22060;SDS011;11194;48.092;-1.382;2023-08-17T04:37:47;11.25;;;10.15;;
22060;SDS011;11194;48.092;-1.382;2023-08-17T04:40:14;11.43;;;10.32;;
22060;SDS011;11194;48.092;-1.382;2023-08-17T04:42:40;11.80;;;10.82;;
22060;SDS011;11194;48.092;-1.382;2023-08-17T04:45:06;11.15;;;9.98;;
22060;SDS011;11194;48.092;-1.382;2023-08-17T04:47:33;12.52;;;11.45;;
22060;SDS011;11194;48.092;-1.382;2023-08-17T04:49:59;10.90;;;10.00;;
22060;SDS011;11194;48.092;-1.382;2023-08-17T04:52:25;11.02;;;10.05;;
22060;SDS011;11194;48.092;-1.382;2023-08-17T04:54:51;11.15;;;10.00;;
22060;SDS011;11194;48.092;-1.382;2023-08-17T04:57:18;11.57;;;10.57;;
22060;SDS011;11194;48.092;-1.382;2023-08-17T04:59:44;10.30;;;9.25;;
22060;SDS011;11194;48.092;-1.382;2023-08-17T05:02:10;10.93;;;9.63;;
22060;SDS011;11194;48.092;-1.382;2023-08-17T05:04:36;10.27;;;8.65;;
22060;SDS011;11194;48.092;-1.382;2023-08-17T05:07:04;10.15;;;9.07;;
22060;SDS011;11194;48.092;-1.382;2023-08-17T05:09:30;10.48;;;9.02;;
22060;SDS011;11194;48.092;-1.382;2023-08-17T05:11:56;8.90;;;8.05;;
22060;SDS011;11194;48.092;-1.382;2023-08-17T05:14:22;9.73;;;8.70;;
22060;SDS011;11194;48.092;-1.382;2023-08-17T05:16:48;10.63;;;8.57;;
22060;SDS011;11194;48.092;-1.382;2023-08-17T05:19:14;11.70;;;9.48;;
22060;SDS011;11194;48.092;-1.382;2023-08-17T05:21:40;11.52;;;10.38;;
22060;SDS011;11194;48.092;-1.382;2023-08-17T05:24:06;12.18;;;11.18;;
22060;SDS011;11194;48.092;-1.382;2023-08-17T05:26:32;12.65;;;11.35;;
22060;SDS011;11194;48.092;-1.382;2023-08-17T05:28:58;12.75;;;11.13;;
22060;SDS011;11194;48.092;-1.382;2023-08-17T05:31:24;11.90;;;10.90;;
22060;SDS011;11194;48.092;-1.382;2023-08-17T05:36:43;10.52;;;9.63;;
22060;SDS011;11194;48.092;-1.382;2023-08-17T05:39:09;10.68;;;9.60;;
22060;SDS011;11194;48.092;-1.382;2023-08-17T05:41:35;10.48;;;9.48;;
22060;SDS011;11194;48.092;-1.382;2023-08-17T05:44:01;11.23;;;9.02;;
22060;SDS011;11194;48.092;-1.382;2023-08-17T05:46:27;10.35;;;9.38;;
22060;SDS011;11194;48.092;-1.382;2023-08-17T05:48:53;12.25;;;9.50;;
22060;SDS011;11194;48.092;-1.382;2023-08-17T05:51:19;9.82;;;8.82;;
22060;SDS011;11194;48.092;-1.382;2023-08-17T05:53:45;11.90;;;8.55;;
22060;SDS011;11194;48.092;-1.382;2023-08-17T05:56:11;9.50;;;8.52;;
22060;SDS011;11194;48.092;-1.382;2023-08-17T05:58:37;9.35;;;8.25;;
22060;SDS011;11194;48.092;-1.382;2023-08-17T06:01:04;15.60;;;8.55;;
22060;SDS011;11194;48.092;-1.382;2023-08-17T06:03:31;8.38;;;7.53;;
22060;SDS011;11194;48.092;-1.382;2023-08-17T06:05:57;10.95;;;7.93;;
22060;SDS011;11194;48.092;-1.382;2023-08-17T06:08:23;8.95;;;8.05;;
22060;SDS011;11194;48.092;-1.382;2023-08-17T06:10:49;10.40;;;8.65;;
22060;SDS011;11194;48.092;-1.382;2023-08-17T06:13:15;9.73;;;8.73;;
22060;SDS011;11194;48.092;-1.382;2023-08-17T06:15:41;11.32;;;9.10;;
22060;SDS011;11194;48.092;-1.382;2023-08-17T06:18:07;11.80;;;8.80;;
22060;SDS011;11194;48.092;-1.382;2023-08-17T06:20:34;11.43;;;8.85;;
22060;SDS011;11194;48.092;-1.382;2023-08-17T06:23:00;8.15;;;7.35;;
22060;SDS011;11194;48.092;-1.382;2023-08-17T06:25:26;11.05;;;7.90;;
22060;SDS011;11194;48.092;-1.382;2023-08-17T06:27:52;9.40;;;7.72;;
22060;SDS011;11194;48.092;-1.382;2023-08-17T06:30:18;13.40;;;8.88;;
22060;SDS011;11194;48.092;-1.382;2023-08-17T06:32:44;11.07;;;8.35;;
22060;SDS011;11194;48.092;-1.382;2023-08-17T06:35:10;9.60;;;8.25;;
22060;SDS011;11194;48.092;-1.382;2023-08-17T06:37:36;9.48;;;7.07;;
22060;SDS011;11194;48.092;-1.382;2023-08-17T06:40:03;10.75;;;7.40;;
22060;SDS011;11194;48.092;-1.382;2023-08-17T06:42:30;7.95;;;7.13;;
22060;SDS011;11194;48.092;-1.382;2023-08-17T06:44:56;8.98;;;7.15;;
22060;SDS011;11194;48.092;-1.382;2023-08-17T06:47:22;10.30;;;8.18;;
22060;SDS011;11194;48.092;-1.382;2023-08-17T06:49:48;11.98;;;7.78;;
22060;SDS011;11194;48.092;-1.382;2023-08-17T06:52:14;9.18;;;6.97;;
22060;SDS011;11194;48.092;-1.382;2023-08-17T06:54:41;14.02;;;7.80;;
22060;SDS011;11194;48.092;-1.382;2023-08-17T06:57:07;8.35;;;6.95;;
22060;SDS011;11194;48.092;-1.382;2023-08-17T06:59:33;8.57;;;6.60;;
22060;SDS011;11194;48.092;-1.382;2023-08-17T07:01:59;10.77;;;6.85;;
22060;SDS011;11194;48.092;-1.382;2023-08-17T07:04:25;8.30;;;6.30;;
22060;SDS011;11194;48.092;-1.382;2023-08-17T07:06:51;8.95;;;6.50;;
22060;SDS011;11194;48.092;-1.382;2023-08-17T07:09:17;9.30;;;6.38;;
22060;SDS011;11194;48.092;-1.382;2023-08-17T07:11:45;9.23;;;6.22;;
22060;SDS011;11194;48.092;-1.382;2023-08-17T07:14:11;8.85;;;6.70;;
22060;SDS011;11194;48.092;-1.382;2023-08-17T07:16:37;6.88;;;5.88;;
22060;SDS011;11194;48.092;-1.382;2023-08-17T07:19:04;9.18;;;6.07;;
22060;SDS011;11194;48.092;-1.382;2023-08-17T07:21:30;7.55;;;5.45;;
22060;SDS011;11194;48.092;-1.382;2023-08-17T07:23:56;8.07;;;4.95;;
22060;SDS011;11194;48.092;-1.382;2023-08-17T07:26:23;9.25;;;5.70;;
22060;SDS011;11194;48.092;-1.382;2023-08-17T07:28:49;7.38;;;5.18;;
22060;SDS011;11194;48.092;-1.382;2023-08-17T07:31:15;6.82;;;4.72;;
22060;SDS011;11194;48.092;-1.382;2023-08-17T07:33:41;7.25;;;5.18;;
22060;SDS011;11194;48.092;-1.382;2023-08-17T07:36:07;7.10;;;5.35;;
22060;SDS011;11194;48.092;-1.382;2023-08-17T07:38:34;8.38;;;5.00;;
22060;SDS011;11194;48.092;-1.382;2023-08-17T07:41:00;7.53;;;4.97;;
22060;SDS011;11194;48.092;-1.382;2023-08-17T07:43:26;7.07;;;5.18;;
22060;SDS011;11194;48.092;-1.382;2023-08-17T07:45:55;6.93;;;4.90;;
22060;SDS011;11194;48.092;-1.382;2023-08-17T07:48:22;6.70;;;5.10;;
22060;SDS011;11194;48.092;-1.382;2023-08-17T07:50:48;9.75;;;5.60;;
22060;SDS011;11194;48.092;-1.382;2023-08-17T07:53:15;7.40;;;5.40;;
22060;SDS011;11194;48.092;-1.382;2023-08-17T07:55:41;6.80;;;5.00;;
22060;SDS011;11194;48.092;-1.382;2023-08-17T07:58:07;7.85;;;5.50;;
22060;SDS011;11194;48.092;-1.382;2023-08-17T08:00:34;9.45;;;5.38;;
22060;SDS011;11194;48.092;-1.382;2023-08-17T08:03:00;7.85;;;5.28;;
22060;SDS011;11194;48.092;-1.382;2023-08-17T08:05:26;7.13;;;5.38;;
22060;SDS011;11194;48.092;-1.382;2023-08-17T08:07:52;8.32;;;5.45;;
22060;SDS011;11194;48.092;-1.382;2023-08-17T08:10:18;8.80;;;5.70;;
22060;SDS011;11194;48.092;-1.382;2023-08-17T08:12:44;9.10;;;5.68;;
22060;SDS011;11194;48.092;-1.382;2023-08-17T08:15:11;7.30;;;5.55;;
22060;SDS011;11194;48.092;-1.382;2023-08-17T08:17:37;6.13;;;5.22;;
22060;SDS011;11194;48.092;-1.382;2023-08-17T08:20:03;6.47;;;5.30;;
22060;SDS011;11194;48.092;-1.382;2023-08-17T08:22:29;9.20;;;5.47;;
22060;SDS011;11194;48.092;-1.382;2023-08-17T08:24:55;7.35;;;5.63;;
22060;SDS011;11194;48.092;-1.382;2023-08-17T08:27:21;8.35;;;5.43;;
22060;SDS011;11194;48.092;-1.382;2023-08-17T08:29:48;8.73;;;6.43;;
22060;SDS011;11194;48.092;-1.382;2023-08-17T08:32:14;9.48;;;5.68;;
22060;SDS011;11194;48.092;-1.382;2023-08-17T08:34:40;7.28;;;5.50;;
22060;SDS011;11194;48.092;-1.382;2023-08-17T08:37:09;5.90;;;5.30;;
22060;SDS011;11194;48.092;-1.382;2023-08-17T08:39:48;7.50;;;5.05;;
22060;SDS011;11194;48.092;-1.382;2023-08-17T08:42:16;7.68;;;5.38;;
22060;SDS011;11194;48.092;-1.382;2023-08-17T08:44:42;6.35;;;5.18;;
22060;SDS011;11194;48.092;-1.382;2023-08-17T08:47:08;9.93;;;5.72;;
22060;SDS011;11194;48.092;-1.382;2023-08-17T08:49:34;8.80;;;5.55;;
22060;SDS011;11194;48.092;-1.382;2023-08-17T08:52:04;10.57;;;5.60;;
22060;SDS011;11194;48.092;-1.382;2023-08-17T08:54:32;6.68;;;5.60;;
22060;SDS011;11194;48.092;-1.382;2023-08-17T08:56:59;6.47;;;5.47;;
22060;SDS011;11194;48.092;-1.382;2023-08-17T08:59:27;7.13;;;5.22;;
22060;SDS011;11194;48.092;-1.382;2023-08-17T09:01:54;7.45;;;5.47;;
22060;SDS011;11194;48.092;-1.382;2023-08-17T09:04:21;7.05;;;5.47;;
22060;SDS011;11194;48.092;-1.382;2023-08-17T09:06:47;8.05;;;4.90;;
22060;SDS011;11194;48.092;-1.382;2023-08-17T09:09:14;6.40;;;5.30;;
22060;SDS011;11194;48.092;-1.382;2023-08-17T09:11:41;7.72;;;5.57;;
22060;SDS011;11194;48.092;-1.382;2023-08-17T09:14:07;8.02;;;5.93;;
22060;SDS011;11194;48.092;-1.382;2023-08-17T09:16:34;8.45;;;6.20;;
22060;SDS011;11194;48.092;-1.382;2023-08-17T09:19:00;6.10;;;5.25;;
22060;SDS011;11194;48.092;-1.382;2023-08-17T09:21:26;8.38;;;5.97;;
22060;SDS011;11194;48.092;-1.382;2023-08-17T09:23:57;6.45;;;5.13;;
22060;SDS011;11194;48.092;-1.382;2023-08-17T09:26:23;7.97;;;5.10;;
22060;SDS011;11194;48.092;-1.382;2023-08-17T09:28:52;5.97;;;5.07;;
22060;SDS011;11194;48.092;-1.382;2023-08-17T09:31:23;5.57;;;4.90;;
22060;SDS011;11194;48.092;-1.382;2023-08-17T09:33:50;5.72;;;4.70;;
22060;SDS011;11194;48.092;-1.382;2023-08-17T09:36:19;6.60;;;5.07;;
22060;SDS011;11194;48.092;-1.382;2023-08-17T09:38:48;6.68;;;5.40;;
22060;SDS011;11194;48.092;-1.382;2023-08-17T09:41:15;6.47;;;5.00;;
22060;SDS011;11194;48.092;-1.382;2023-08-17T09:43:41;5.43;;;4.80;;
22060;SDS011;11194;48.092;-1.382;2023-08-17T09:46:08;7.00;;;5.25;;
22060;SDS011;11194;48.092;-1.382;2023-08-17T09:48:35;5.57;;;4.65;;
22060;SDS011;11194;48.092;-1.382;2023-08-17T09:51:02;7.10;;;4.93;;
22060;SDS011;11194;48.092;-1.382;2023-08-17T09:53:33;6.65;;;4.97;;
22060;SDS011;11194;48.092;-1.382;2023-08-17T09:56:03;5.28;;;4.78;;
22060;SDS011;11194;48.092;-1.382;2023-08-17T09:58:29;7.93;;;5.18;;
22060;SDS011;11194;48.092;-1.382;2023-08-17T10:00:55;5.60;;;4.60;;
22060;SDS011;11194;48.092;-1.382;2023-08-17T10:03:24;5.70;;;5.10;;
22060;SDS011;11194;48.092;-1.382;2023-08-17T10:05:58;6.15;;;4.57;;
22060;SDS011;11194;48.092;-1.382;2023-08-17T10:08:25;6.25;;;5.25;;
22060;SDS011;11194;48.092;-1.382;2023-08-17T10:10:53;5.85;;;4.68;;
22060;SDS011;11194;48.092;-1.382;2023-08-17T10:13:31;5.90;;;4.65;;
22060;SDS011;11194;48.092;-1.382;2023-08-17T10:21:28;5.78;;;5.15;;
22060;SDS011;11194;48.092;-1.382;2023-08-17T10:23:55;8.25;;;4.75;;
22060;SDS011;11194;48.092;-1.382;2023-08-17T10:26:21;6.45;;;4.93;;
22060;SDS011;11194;48.092;-1.382;2023-08-17T10:28:50;5.05;;;4.47;;
22060;SDS011;11194;48.092;-1.382;2023-08-17T10:31:17;6.03;;;4.97;;
22060;SDS011;11194;48.092;-1.382;2023-08-17T10:33:46;8.98;;;4.95;;
22060;SDS011;11194;48.092;-1.382;2023-08-17T10:36:12;7.53;;;5.18;;
22060;SDS011;11194;48.092;-1.382;2023-08-17T10:38:42;6.28;;;5.10;;
22060;SDS011;11194;48.092;-1.382;2023-08-17T10:41:14;6.90;;;5.03;;
22060;SDS011;11194;48.092;-1.382;2023-08-17T10:43:52;5.45;;;4.88;;
22060;SDS011;11194;48.092;-1.382;2023-08-17T10:46:21;6.53;;;4.72;;
22060;SDS011;11194;48.092;-1.382;2023-08-17T10:49:00;7.07;;;4.40;;
22060;SDS011;11194;48.092;-1.382;2023-08-17T10:51:26;6.43;;;4.38;;
22060;SDS011;11194;48.092;-1.382;2023-08-17T10:53:54;6.47;;;4.97;;
22060;SDS011;11194;48.092;-1.382;2023-08-17T10:56:24;7.15;;;5.10;;
22060;SDS011;11194;48.092;-1.382;2023-08-17T10:58:52;6.20;;;4.75;;
22060;SDS011;11194;48.092;-1.382;2023-08-17T11:01:35;5.60;;;4.50;;
22060;SDS011;11194;48.092;-1.382;2023-08-17T11:04:17;5.45;;;4.50;;
22060;SDS011;11194;48.092;-1.382;2023-08-17T11:06:44;6.20;;;4.47;;
22060;SDS011;11194;48.092;-1.382;2023-08-17T11:09:10;5.63;;;4.40;;
22060;SDS011;11194;48.092;-1.382;2023-08-17T11:11:38;5.22;;;4.68;;
22060;SDS011;11194;48.092;-1.382;2023-08-17T11:14:07;5.93;;;4.32;;
22060;SDS011;11194;48.092;-1.382;2023-08-17T11:16:34;5.80;;;4.63;;
22060;SDS011;11194;48.092;-1.382;2023-08-17T11:19:00;6.78;;;4.95;;
22060;SDS011;11194;48.092;-1.382;2023-08-17T11:21:26;6.43;;;4.90;;
22060;SDS011;11194;48.092;-1.382;2023-08-17T11:23:54;4.82;;;4.32;;
22060;SDS011;11194;48.092;-1.382;2023-08-17T11:26:21;6.57;;;4.40;;
22060;SDS011;11194;48.092;-1.382;2023-08-17T11:28:47;6.40;;;3.85;;
22060;SDS011;11194;48.092;-1.382;2023-08-17T11:31:13;7.20;;;4.55;;
22060;SDS011;11194;48.092;-1.382;2023-08-17T11:33:40;4.88;;;4.38;;
22060;SDS011;11194;48.092;-1.382;2023-08-17T11:36:07;5.50;;;4.10;;
22060;SDS011;11194;48.092;-1.382;2023-08-17T11:38:34;6.28;;;4.10;;
22060;SDS011;11194;48.092;-1.382;2023-08-17T11:41:00;5.60;;;4.32;;
22060;SDS011;11194;48.092;-1.382;2023-08-17T11:43:32;6.10;;;4.20;;
22060;SDS011;11194;48.092;-1.382;2023-08-17T11:45:59;5.75;;;4.50;;
22060;SDS011;11194;48.092;-1.382;2023-08-17T11:48:25;6.18;;;4.80;;
22060;SDS011;11194;48.092;-1.382;2023-08-17T11:50:52;5.82;;;4.82;;
22060;SDS011;11194;48.092;-1.382;2023-08-17T11:53:20;5.88;;;4.60;;
22060;SDS011;11194;48.092;-1.382;2023-08-17T11:55:46;6.70;;;4.22;;
22060;SDS011;11194;48.092;-1.382;2023-08-17T11:58:12;4.90;;;4.40;;
22060;SDS011;11194;48.092;-1.382;2023-08-17T12:00:41;4.82;;;4.32;;
22060;SDS011;11194;48.092;-1.382;2023-08-17T12:03:12;4.90;;;4.03;;
22060;SDS011;11194;48.092;-1.382;2023-08-17T12:05:39;6.65;;;4.68;;
22060;SDS011;11194;48.092;-1.382;2023-08-17T12:08:07;5.60;;;4.43;;
22060;SDS011;11194;48.092;-1.382;2023-08-17T12:10:33;6.35;;;4.07;;
22060;SDS011;11194;48.092;-1.382;2023-08-17T12:12:59;6.82;;;4.20;;
22060;SDS011;11194;48.092;-1.382;2023-08-17T12:15:33;5.53;;;4.35;;
22060;SDS011;11194;48.092;-1.382;2023-08-17T12:18:00;6.22;;;4.60;;
22060;SDS011;11194;48.092;-1.382;2023-08-17T12:20:29;5.60;;;4.30;;
22060;SDS011;11194;48.092;-1.382;2023-08-17T12:22:57;5.28;;;4.10;;
22060;SDS011;11194;48.092;-1.382;2023-08-17T12:25:26;6.05;;;4.43;;
22060;SDS011;11194;48.092;-1.382;2023-08-17T12:27:52;5.78;;;4.45;;
22060;SDS011;11194;48.092;-1.382;2023-08-17T12:30:29;6.68;;;4.80;;
22060;SDS011;11194;48.092;-1.382;2023-08-17T12:32:57;6.38;;;4.55;;
22060;SDS011;11194;48.092;-1.382;2023-08-17T12:35:23;5.82;;;4.68;;
22060;SDS011;11194;48.092;-1.382;2023-08-17T12:37:50;6.10;;;4.50;;
22060;SDS011;11194;48.092;-1.382;2023-08-17T12:40:18;5.50;;;3.72;;
22060;SDS011;11194;48.092;-1.382;2023-08-17T12:42:44;6.55;;;4.05;;
22060;SDS011;11194;48.092;-1.382;2023-08-17T12:45:10;6.70;;;4.40;;
22060;SDS011;11194;48.092;-1.382;2023-08-17T12:47:36;6.18;;;4.65;;
22060;SDS011;11194;48.092;-1.382;2023-08-17T12:50:03;7.57;;;4.53;;
22060;SDS011;11194;48.092;-1.382;2023-08-17T12:52:29;6.35;;;4.38;;
22060;SDS011;11194;48.092;-1.382;2023-08-17T12:54:55;5.85;;;4.47;;
22060;SDS011;11194;48.092;-1.382;2023-08-17T12:57:22;5.53;;;4.50;;
22060;SDS011;11194;48.092;-1.382;2023-08-17T12:59:48;4.78;;;4.20;;
22060;SDS011;11194;48.092;-1.382;2023-08-17T13:02:14;5.50;;;4.35;;
22060;SDS011;11194;48.092;-1.382;2023-08-17T13:04:41;7.75;;;4.78;;
22060;SDS011;11194;48.092;-1.382;2023-08-17T13:07:07;6.78;;;4.47;;
22060;SDS011;11194;48.092;-1.382;2023-08-17T13:09:33;7.78;;;4.15;;
22060;SDS011;11194;48.092;-1.382;2023-08-17T13:11:59;6.93;;;4.30;;
22060;SDS011;11194;48.092;-1.382;2023-08-17T13:14:25;9.10;;;4.90;;
22060;SDS011;11194;48.092;-1.382;2023-08-17T13:16:51;6.55;;;4.13;;
22060;SDS011;11194;48.092;-1.382;2023-08-17T13:19:18;6.15;;;4.07;;
22060;SDS011;11194;48.092;-1.382;2023-08-17T13:21:46;5.30;;;4.10;;
22060;SDS011;11194;48.092;-1.382;2023-08-17T13:24:12;5.93;;;4.00;;
22060;SDS011;11194;48.092;-1.382;2023-08-17T13:26:38;5.30;;;3.67;;
22060;SDS011;11194;48.092;-1.382;2023-08-17T13:29:04;5.18;;;4.30;;
22060;SDS011;11194;48.092;-1.382;2023-08-17T13:31:30;6.25;;;4.50;;
22060;SDS011;11194;48.092;-1.382;2023-08-17T13:33:57;4.90;;;4.13;;
22060;SDS011;11194;48.092;-1.382;2023-08-17T13:36:23;5.93;;;4.22;;
22060;SDS011;11194;48.092;-1.382;2023-08-17T13:38:51;5.85;;;4.15;;
22060;SDS011;11194;48.092;-1.382;2023-08-17T13:41:17;5.63;;;4.25;;
22060;SDS011;11194;48.092;-1.382;2023-08-17T13:43:43;6.20;;;4.28;;
22060;SDS011;11194;48.092;-1.382;2023-08-17T13:46:09;6.25;;;4.32;;
22060;SDS011;11194;48.092;-1.382;2023-08-17T13:48:35;6.00;;;3.83;;
22060;SDS011;11194;48.092;-1.382;2023-08-17T13:51:04;5.05;;;4.10;;
22060;SDS011;11194;48.092;-1.382;2023-08-17T13:53:30;4.80;;;3.70;;
22060;SDS011;11194;48.092;-1.382;2023-08-17T13:55:56;4.97;;;4.00;;
22060;SDS011;11194;48.092;-1.382;2023-08-17T13:58:22;5.30;;;4.50;;
22060;SDS011;11194;48.092;-1.382;2023-08-17T14:00:48;5.22;;;4.18;;
22060;SDS011;11194;48.092;-1.382;2023-08-17T14:03:14;8.10;;;5.00;;
22060;SDS011;11194;48.092;-1.382;2023-08-17T14:05:40;6.65;;;4.20;;
22060;SDS011;11194;48.092;-1.382;2023-08-17T14:08:06;5.78;;;4.18;;
22060;SDS011;11194;48.092;-1.382;2023-08-17T14:10:32;5.05;;;4.40;;
22060;SDS011;11194;48.092;-1.382;2023-08-17T14:13:01;5.50;;;4.25;;
22060;SDS011;11194;48.092;-1.382;2023-08-17T14:15:27;6.15;;;4.30;;
22060;SDS011;11194;48.092;-1.382;2023-08-17T14:17:53;7.88;;;4.30;;
22060;SDS011;11194;48.092;-1.382;2023-08-17T14:20:19;6.03;;;4.60;;
22060;SDS011;11194;48.092;-1.382;2023-08-17T14:22:45;6.70;;;4.10;;
22060;SDS011;11194;48.092;-1.382;2023-08-17T14:25:12;6.60;;;4.35;;
22060;SDS011;11194;48.092;-1.382;2023-08-17T14:27:38;5.00;;;3.90;;
22060;SDS011;11194;48.092;-1.382;2023-08-17T14:30:04;5.05;;;3.95;;
22060;SDS011;11194;48.092;-1.382;2023-08-17T14:32:31;5.50;;;4.47;;
22060;SDS011;11194;48.092;-1.382;2023-08-17T14:34:57;6.93;;;3.90;;
22060;SDS011;11194;48.092;-1.382;2023-08-17T14:37:29;4.75;;;3.92;;
22060;SDS011;11194;48.092;-1.382;2023-08-17T14:39:55;6.15;;;4.50;;